sensor_id;sensor_type;location;lat;lon;timestamp;P1;durP1;ratioP1;P2;durP2;ratioP2
74269;SDS011;62754;48.252;11.654;2022-11-14T00:00:26;55.65;;;12.65;;
74269;SDS011;62754;48.252;11.654;2022-11-14T00:02:53;61.97;;;11.00;;
74269;SDS011;62754;48.252;11.654;2022-11-14T00:05:19;59.78;;;12.27;;
74269;SDS011;62754;48.252;11.654;2022-11-14T00:07:46;66.15;;;11.82;;
74269;SDS011;62754;48.252;11.654;2022-11-14T00:10:12;62.75;;;11.73;;
74269;SDS011;62754;48.252;11.654;2022-11-14T00:12:39;85.07;;;11.45;;
74269;SDS011;62754;48.252;11.654;2022-11-14T00:15:05;87.72;;;12.80;;
74269;SDS011;62754;48.252;11.654;2022-11-14T00:17:31;22.60;;;8.77;;
74269;SDS011;62754;48.252;11.654;2022-11-14T00:19:57;73.00;;;11.68;;
74269;SDS011;62754;48.252;11.654;2022-11-14T00:22:22;76.80;;;11.43;;
74269;SDS011;62754;48.252;11.654;2022-11-14T00:24:48;83.18;;;12.48;;
74269;SDS011;62754;48.252;11.654;2022-11-14T00:27:14;74.57;;;12.02;;
74269;SDS011;62754;48.252;11.654;2022-11-14T00:29:40;55.25;;;11.02;;
74269;SDS011;62754;48.252;11.654;2022-11-14T00:32:05;81.07;;;11.70;;
74269;SDS011;62754;48.252;11.654;2022-11-14T00:34:32;55.58;;;10.68;;
74269;SDS011;62754;48.252;11.654;2022-11-14T00:36:57;81.60;;;12.20;;
74269;SDS011;62754;48.252;11.654;2022-11-14T00:39:23;82.22;;;11.65;;
74269;SDS011;62754;48.252;11.654;2022-11-14T00:41:49;87.35;;;13.00;;
74269;SDS011;62754;48.252;11.654;2022-11-14T00:44:15;66.18;;;12.30;;
74269;SDS011;62754;48.252;11.654;2022-11-14T00:46:41;57.55;;;11.57;;
74269;SDS011;62754;48.252;11.654;2022-11-14T00:49:07;37.15;;;10.82;;
74269;SDS011;62754;48.252;11.654;2022-11-14T00:51:33;98.13;;;14.23;;
74269;SDS011;62754;48.252;11.654;2022-11-14T00:53:58;71.20;;;12.38;;
74269;SDS011;62754;48.252;11.654;2022-11-14T00:56:24;50.95;;;10.95;;
74269;SDS011;62754;48.252;11.654;2022-11-14T00:58:50;60.53;;;11.00;;
74269;SDS011;62754;48.252;11.654;2022-11-14T01:01:16;93.72;;;12.35;;
74269;SDS011;62754;48.252;11.654;2022-11-14T01:03:42;112.18;;;14.73;;
74269;SDS011;62754;48.252;11.654;2022-11-14T01:06:08;80.95;;;12.50;;
74269;SDS011;62754;48.252;11.654;2022-11-14T01:08:36;37.88;;;9.57;;
74269;SDS011;62754;48.252;11.654;2022-11-14T01:11:07;33.78;;;9.30;;
74269;SDS011;62754;48.252;11.654;2022-11-14T01:13:34;81.38;;;11.63;;
74269;SDS011;62754;48.252;11.654;2022-11-14T01:16:00;72.82;;;11.55;;
74269;SDS011;62754;48.252;11.654;2022-11-14T01:18:26;70.63;;;10.60;;
74269;SDS011;62754;48.252;11.654;2022-11-14T01:20:52;46.15;;;10.70;;
74269;SDS011;62754;48.252;11.654;2022-11-14T01:23:17;43.47;;;9.55;;
74269;SDS011;62754;48.252;11.654;2022-11-14T01:25:43;125.97;;;13.00;;
74269;SDS011;62754;48.252;11.654;2022-11-14T01:28:15;31.65;;;10.23;;
74269;SDS011;62754;48.252;11.654;2022-11-14T01:30:42;56.05;;;11.50;;
74269;SDS011;62754;48.252;11.654;2022-11-14T01:33:07;27.17;;;8.63;;
74269;SDS011;62754;48.252;11.654;2022-11-14T01:35:35;25.63;;;8.30;;
74269;SDS011;62754;48.252;11.654;2022-11-14T01:38:02;41.70;;;9.85;;
74269;SDS011;62754;48.252;11.654;2022-11-14T01:40:29;58.25;;;10.65;;
74269;SDS011;62754;48.252;11.654;2022-11-14T01:48:17;69.57;;;10.40;;
74269;SDS011;62754;48.252;11.654;2022-11-14T01:50:48;88.63;;;11.63;;
74269;SDS011;62754;48.252;11.654;2022-11-14T01:53:21;52.72;;;10.13;;
74269;SDS011;62754;48.252;11.654;2022-11-14T01:55:48;67.97;;;11.05;;
74269;SDS011;62754;48.252;11.654;2022-11-14T01:58:14;39.80;;;9.85;;
74269;SDS011;62754;48.252;11.654;2022-11-14T02:00:41;38.13;;;9.45;;
74269;SDS011;62754;48.252;11.654;2022-11-14T02:03:08;17.60;;;10.57;;
74269;SDS011;62754;48.252;11.654;2022-11-14T02:05:36;72.50;;;12.68;;
74269;SDS011;62754;48.252;11.654;2022-11-14T02:08:02;31.65;;;10.52;;
74269;SDS011;62754;48.252;11.654;2022-11-14T02:10:28;18.17;;;10.15;;
74269;SDS011;62754;48.252;11.654;2022-11-14T02:12:54;39.83;;;9.73;;
74269;SDS011;62754;48.252;11.654;2022-11-14T02:18:23;36.08;;;10.25;;
74269;SDS011;62754;48.252;11.654;2022-11-14T02:20:49;41.53;;;11.05;;
74269;SDS011;62754;48.252;11.654;2022-11-14T02:23:23;45.42;;;11.15;;
74269;SDS011;62754;48.252;11.654;2022-11-14T02:25:53;74.55;;;12.07;;
74269;SDS011;62754;48.252;11.654;2022-11-14T02:28:19;38.13;;;11.10;;
74269;SDS011;62754;48.252;11.654;2022-11-14T02:30:45;65.93;;;11.35;;
74269;SDS011;62754;48.252;11.654;2022-11-14T02:33:12;68.00;;;11.45;;
74269;SDS011;62754;48.252;11.654;2022-11-14T02:35:38;31.58;;;10.35;;
74269;SDS011;62754;48.252;11.654;2022-11-14T02:38:04;31.38;;;9.95;;
74269;SDS011;62754;48.252;11.654;2022-11-14T02:40:30;47.15;;;10.38;;
74269;SDS011;62754;48.252;11.654;2022-11-14T02:42:56;34.20;;;10.43;;
74269;SDS011;62754;48.252;11.654;2022-11-14T02:45:21;41.15;;;9.55;;
74269;SDS011;62754;48.252;11.654;2022-11-14T02:47:47;33.20;;;9.43;;
74269;SDS011;62754;48.252;11.654;2022-11-14T02:50:13;42.30;;;9.90;;
74269;SDS011;62754;48.252;11.654;2022-11-14T02:52:39;60.08;;;11.18;;
74269;SDS011;62754;48.252;11.654;2022-11-14T02:55:05;34.08;;;9.70;;
74269;SDS011;62754;48.252;11.654;2022-11-14T02:57:31;32.33;;;9.63;;
74269;SDS011;62754;48.252;11.654;2022-11-14T02:59:57;59.53;;;11.57;;
74269;SDS011;62754;48.252;11.654;2022-11-14T03:02:22;36.00;;;10.48;;
74269;SDS011;62754;48.252;11.654;2022-11-14T03:04:48;50.58;;;10.70;;
74269;SDS011;62754;48.252;11.654;2022-11-14T03:07:14;38.38;;;9.98;;
74269;SDS011;62754;48.252;11.654;2022-11-14T03:09:40;74.85;;;11.00;;
74269;SDS011;62754;48.252;11.654;2022-11-14T03:12:05;65.03;;;11.85;;
74269;SDS011;62754;48.252;11.654;2022-11-14T03:14:31;20.30;;;9.77;;
74269;SDS011;62754;48.252;11.654;2022-11-14T03:16:57;61.35;;;11.10;;
74269;SDS011;62754;48.252;11.654;2022-11-14T03:19:23;35.33;;;10.18;;
74269;SDS011;62754;48.252;11.654;2022-11-14T03:21:49;44.00;;;10.20;;
74269;SDS011;62754;48.252;11.654;2022-11-14T03:24:14;45.95;;;10.45;;
74269;SDS011;62754;48.252;11.654;2022-11-14T03:26:40;33.58;;;9.77;;
74269;SDS011;62754;48.252;11.654;2022-11-14T03:29:06;40.33;;;10.57;;
74269;SDS011;62754;48.252;11.654;2022-11-14T03:31:32;48.65;;;10.40;;
74269;SDS011;62754;48.252;11.654;2022-11-14T03:33:58;31.15;;;10.55;;
74269;SDS011;62754;48.252;11.654;2022-11-14T03:36:23;45.15;;;9.82;;
74269;SDS011;62754;48.252;11.654;2022-11-14T03:38:49;51.05;;;11.27;;
74269;SDS011;62754;48.252;11.654;2022-11-14T03:41:15;46.97;;;10.90;;
74269;SDS011;62754;48.252;11.654;2022-11-14T03:43:41;49.90;;;10.40;;
74269;SDS011;62754;48.252;11.654;2022-11-14T03:46:06;35.67;;;9.20;;
74269;SDS011;62754;48.252;11.654;2022-11-14T03:48:32;20.10;;;9.65;;
74269;SDS011;62754;48.252;11.654;2022-11-14T03:50:58;27.92;;;8.85;;
74269;SDS011;62754;48.252;11.654;2022-11-14T03:53:24;29.13;;;9.15;;
74269;SDS011;62754;48.252;11.654;2022-11-14T03:55:50;56.05;;;10.45;;
74269;SDS011;62754;48.252;11.654;2022-11-14T03:58:17;30.27;;;9.35;;
74269;SDS011;62754;48.252;11.654;2022-11-14T04:00:42;21.13;;;8.57;;
74269;SDS011;62754;48.252;11.654;2022-11-14T04:03:08;59.40;;;10.32;;
74269;SDS011;62754;48.252;11.654;2022-11-14T04:05:34;39.63;;;9.90;;
74269;SDS011;62754;48.252;11.654;2022-11-14T04:07:59;56.78;;;10.45;;
74269;SDS011;62754;48.252;11.654;2022-11-14T04:10:28;47.28;;;10.13;;
74269;SDS011;62754;48.252;11.654;2022-11-14T04:12:54;98.00;;;12.05;;
74269;SDS011;62754;48.252;11.654;2022-11-14T04:15:20;64.05;;;10.82;;
74269;SDS011;62754;48.252;11.654;2022-11-14T04:17:45;71.38;;;13.20;;
74269;SDS011;62754;48.252;11.654;2022-11-14T04:20:12;42.50;;;9.45;;
74269;SDS011;62754;48.252;11.654;2022-11-14T04:22:39;27.45;;;9.27;;
74269;SDS011;62754;48.252;11.654;2022-11-14T04:25:05;35.88;;;9.35;;
74269;SDS011;62754;48.252;11.654;2022-11-14T04:27:32;30.05;;;10.63;;
74269;SDS011;62754;48.252;11.654;2022-11-14T04:29:59;61.53;;;11.43;;
74269;SDS011;62754;48.252;11.654;2022-11-14T04:32:24;27.70;;;9.32;;
74269;SDS011;62754;48.252;11.654;2022-11-14T04:34:50;48.45;;;10.88;;
74269;SDS011;62754;48.252;11.654;2022-11-14T04:37:16;44.63;;;10.05;;
74269;SDS011;62754;48.252;11.654;2022-11-14T04:39:42;24.42;;;10.23;;
74269;SDS011;62754;48.252;11.654;2022-11-14T04:42:08;26.73;;;8.80;;
74269;SDS011;62754;48.252;11.654;2022-11-14T04:44:33;35.78;;;9.63;;
74269;SDS011;62754;48.252;11.654;2022-11-14T04:46:59;43.00;;;9.30;;
74269;SDS011;62754;48.252;11.654;2022-11-14T04:49:25;46.75;;;10.10;;
74269;SDS011;62754;48.252;11.654;2022-11-14T04:51:51;17.60;;;9.25;;
74269;SDS011;62754;48.252;11.654;2022-11-14T04:54:16;47.58;;;10.07;;
74269;SDS011;62754;48.252;11.654;2022-11-14T04:56:42;75.93;;;11.45;;
74269;SDS011;62754;48.252;11.654;2022-11-14T04:59:08;50.00;;;9.85;;
74269;SDS011;62754;48.252;11.654;2022-11-14T05:01:33;36.80;;;9.25;;
74269;SDS011;62754;48.252;11.654;2022-11-14T05:03:59;26.75;;;8.75;;
74269;SDS011;62754;48.252;11.654;2022-11-14T05:06:25;49.42;;;9.57;;
74269;SDS011;62754;48.252;11.654;2022-11-14T05:08:51;50.63;;;10.30;;
74269;SDS011;62754;48.252;11.654;2022-11-14T05:11:17;58.50;;;9.70;;
74269;SDS011;62754;48.252;11.654;2022-11-14T05:13:44;71.22;;;10.38;;
74269;SDS011;62754;48.252;11.654;2022-11-14T05:16:11;50.78;;;9.80;;
74269;SDS011;62754;48.252;11.654;2022-11-14T05:18:37;43.90;;;9.00;;
74269;SDS011;62754;48.252;11.654;2022-11-14T05:21:03;58.67;;;10.68;;
74269;SDS011;62754;48.252;11.654;2022-11-14T05:23:29;15.98;;;8.25;;
74269;SDS011;62754;48.252;11.654;2022-11-14T05:26:02;17.85;;;8.13;;
74269;SDS011;62754;48.252;11.654;2022-11-14T05:28:36;34.75;;;8.88;;
74269;SDS011;62754;48.252;11.654;2022-11-14T05:33:27;56.65;;;9.93;;
74269;SDS011;62754;48.252;11.654;2022-11-14T05:35:53;46.85;;;9.73;;
74269;SDS011;62754;48.252;11.654;2022-11-14T05:38:19;74.32;;;10.60;;
74269;SDS011;62754;48.252;11.654;2022-11-14T05:40:45;32.72;;;8.88;;
74269;SDS011;62754;48.252;11.654;2022-11-14T05:43:11;62.67;;;10.63;;
74269;SDS011;62754;48.252;11.654;2022-11-14T05:45:36;64.00;;;10.35;;
74269;SDS011;62754;48.252;11.654;2022-11-14T05:48:02;33.83;;;9.63;;
74269;SDS011;62754;48.252;11.654;2022-11-14T05:50:28;30.05;;;8.43;;
74269;SDS011;62754;48.252;11.654;2022-11-14T05:52:55;28.27;;;8.43;;
74269;SDS011;62754;48.252;11.654;2022-11-14T05:57:46;39.53;;;10.00;;
74269;SDS011;62754;48.252;11.654;2022-11-14T06:00:12;25.02;;;14.07;;
74269;SDS011;62754;48.252;11.654;2022-11-14T06:02:38;26.25;;;10.48;;
74269;SDS011;62754;48.252;11.654;2022-11-14T06:05:04;49.15;;;12.18;;
74269;SDS011;62754;48.252;11.654;2022-11-14T06:07:30;52.65;;;11.75;;
74269;SDS011;62754;48.252;11.654;2022-11-14T06:09:56;20.45;;;10.45;;
74269;SDS011;62754;48.252;11.654;2022-11-14T06:12:21;70.43;;;9.45;;
74269;SDS011;62754;48.252;11.654;2022-11-14T06:14:47;50.58;;;8.75;;
74269;SDS011;62754;48.252;11.654;2022-11-14T06:17:13;50.20;;;10.27;;
74269;SDS011;62754;48.252;11.654;2022-11-14T06:19:39;66.03;;;10.20;;
74269;SDS011;62754;48.252;11.654;2022-11-14T06:22:04;58.72;;;9.35;;
74269;SDS011;62754;48.252;11.654;2022-11-14T06:24:30;69.28;;;20.05;;
74269;SDS011;62754;48.252;11.654;2022-11-14T06:26:56;48.63;;;15.50;;
74269;SDS011;62754;48.252;11.654;2022-11-14T06:29:22;22.25;;;11.07;;
74269;SDS011;62754;48.252;11.654;2022-11-14T06:31:48;42.38;;;9.38;;
74269;SDS011;62754;48.252;11.654;2022-11-14T06:34:13;50.15;;;9.32;;
74269;SDS011;62754;48.252;11.654;2022-11-14T06:36:39;70.63;;;8.95;;
74269;SDS011;62754;48.252;11.654;2022-11-14T06:39:05;10.15;;;6.82;;
74269;SDS011;62754;48.252;11.654;2022-11-14T06:41:31;27.38;;;7.35;;
74269;SDS011;62754;48.252;11.654;2022-11-14T06:43:56;31.58;;;7.50;;
74269;SDS011;62754;48.252;11.654;2022-11-14T06:46:22;31.08;;;7.38;;
74269;SDS011;62754;48.252;11.654;2022-11-14T06:48:48;22.60;;;6.78;;
74269;SDS011;62754;48.252;11.654;2022-11-14T06:51:15;69.82;;;8.90;;
74269;SDS011;62754;48.252;11.654;2022-11-14T06:53:41;30.73;;;10.02;;
74269;SDS011;62754;48.252;11.654;2022-11-14T06:56:09;25.30;;;9.68;;
74269;SDS011;62754;48.252;11.654;2022-11-14T06:58:37;60.45;;;9.80;;
74269;SDS011;62754;48.252;11.654;2022-11-14T07:01:05;55.70;;;8.65;;
74269;SDS011;62754;48.252;11.654;2022-11-14T07:03:38;17.63;;;6.55;;
74269;SDS011;62754;48.252;11.654;2022-11-14T07:06:05;37.65;;;6.50;;
74269;SDS011;62754;48.252;11.654;2022-11-14T07:08:31;69.75;;;8.05;;
74269;SDS011;62754;48.252;11.654;2022-11-14T07:11:04;31.35;;;6.75;;
74269;SDS011;62754;48.252;11.654;2022-11-14T07:13:35;52.63;;;6.93;;
74269;SDS011;62754;48.252;11.654;2022-11-14T07:16:01;35.08;;;8.13;;
74269;SDS011;62754;48.252;11.654;2022-11-14T07:18:31;72.00;;;9.80;;
74269;SDS011;62754;48.252;11.654;2022-11-14T07:20:58;40.50;;;7.30;;
74269;SDS011;62754;48.252;11.654;2022-11-14T07:23:25;111.18;;;9.90;;
74269;SDS011;62754;48.252;11.654;2022-11-14T07:25:51;69.85;;;9.55;;
74269;SDS011;62754;48.252;11.654;2022-11-14T07:28:17;53.40;;;7.68;;
74269;SDS011;62754;48.252;11.654;2022-11-14T07:30:42;32.58;;;7.00;;
74269;SDS011;62754;48.252;11.654;2022-11-14T07:33:08;76.15;;;14.60;;
74269;SDS011;62754;48.252;11.654;2022-11-14T07:35:34;53.72;;;10.07;;
74269;SDS011;62754;48.252;11.654;2022-11-14T07:38:01;22.77;;;6.78;;
74269;SDS011;62754;48.252;11.654;2022-11-14T07:40:28;23.50;;;6.72;;
74269;SDS011;62754;48.252;11.654;2022-11-14T07:42:57;41.80;;;8.15;;
74269;SDS011;62754;48.252;11.654;2022-11-14T07:45:23;46.85;;;6.90;;
74269;SDS011;62754;48.252;11.654;2022-11-14T07:47:49;37.05;;;6.22;;
74269;SDS011;62754;48.252;11.654;2022-11-14T07:50:19;84.40;;;9.18;;
74269;SDS011;62754;48.252;11.654;2022-11-14T07:52:48;86.20;;;8.80;;
74269;SDS011;62754;48.252;11.654;2022-11-14T07:55:15;30.55;;;6.90;;
74269;SDS011;62754;48.252;11.654;2022-11-14T07:57:41;43.60;;;7.43;;
74269;SDS011;62754;48.252;11.654;2022-11-14T08:00:07;25.23;;;7.78;;
74269;SDS011;62754;48.252;11.654;2022-11-14T08:02:33;17.10;;;7.70;;
74269;SDS011;62754;48.252;11.654;2022-11-14T08:04:59;27.60;;;6.90;;
74269;SDS011;62754;48.252;11.654;2022-11-14T08:07:24;57.97;;;8.52;;
74269;SDS011;62754;48.252;11.654;2022-11-14T08:09:50;23.02;;;6.25;;
74269;SDS011;62754;48.252;11.654;2022-11-14T08:12:16;68.93;;;9.05;;
74269;SDS011;62754;48.252;11.654;2022-11-14T08:14:41;21.30;;;6.07;;
74269;SDS011;62754;48.252;11.654;2022-11-14T08:17:07;65.97;;;7.95;;
74269;SDS011;62754;48.252;11.654;2022-11-14T08:19:33;43.85;;;6.55;;
74269;SDS011;62754;48.252;11.654;2022-11-14T08:21:59;42.20;;;6.55;;
74269;SDS011;62754;48.252;11.654;2022-11-14T08:24:24;28.77;;;6.15;;
74269;SDS011;62754;48.252;11.654;2022-11-14T08:26:50;17.48;;;4.88;;
74269;SDS011;62754;48.252;11.654;2022-11-14T08:29:16;29.90;;;6.03;;
74269;SDS011;62754;48.252;11.654;2022-11-14T08:31:42;15.52;;;6.18;;
74269;SDS011;62754;48.252;11.654;2022-11-14T08:34:07;55.53;;;7.63;;
74269;SDS011;62754;48.252;11.654;2022-11-14T08:36:33;7.72;;;4.55;;
74269;SDS011;62754;48.252;11.654;2022-11-14T08:38:59;40.05;;;6.15;;
74269;SDS011;62754;48.252;11.654;2022-11-14T08:41:25;57.78;;;7.10;;
74269;SDS011;62754;48.252;11.654;2022-11-14T08:43:50;56.75;;;7.43;;
74269;SDS011;62754;48.252;11.654;2022-11-14T08:46:16;25.50;;;7.30;;
74269;SDS011;62754;48.252;11.654;2022-11-14T08:48:42;20.35;;;6.05;;
74269;SDS011;62754;48.252;11.654;2022-11-14T08:51:07;42.40;;;6.00;;
74269;SDS011;62754;48.252;11.654;2022-11-14T08:53:33;36.08;;;5.18;;
74269;SDS011;62754;48.252;11.654;2022-11-14T08:55:59;29.10;;;5.65;;
74269;SDS011;62754;48.252;11.654;2022-11-14T08:58:28;47.97;;;5.80;;
74269;SDS011;62754;48.252;11.654;2022-11-14T09:00:58;51.70;;;6.68;;
74269;SDS011;62754;48.252;11.654;2022-11-14T09:03:24;30.15;;;6.53;;
74269;SDS011;62754;48.252;11.654;2022-11-14T09:05:51;11.02;;;5.40;;
74269;SDS011;62754;48.252;11.654;2022-11-14T09:08:17;17.02;;;5.32;;
74269;SDS011;62754;48.252;11.654;2022-11-14T09:10:43;13.30;;;5.82;;
74269;SDS011;62754;48.252;11.654;2022-11-14T09:13:09;24.88;;;5.68;;
74269;SDS011;62754;48.252;11.654;2022-11-14T09:15:34;21.80;;;5.85;;
74269;SDS011;62754;48.252;11.654;2022-11-14T09:18:00;9.48;;;5.40;;
74269;SDS011;62754;48.252;11.654;2022-11-14T09:20:26;20.88;;;6.13;;
74269;SDS011;62754;48.252;11.654;2022-11-14T09:22:52;13.07;;;6.78;;
74269;SDS011;62754;48.252;11.654;2022-11-14T09:25:18;10.73;;;6.85;;
74269;SDS011;62754;48.252;11.654;2022-11-14T09:27:45;8.82;;;5.70;;
74269;SDS011;62754;48.252;11.654;2022-11-14T09:30:11;9.30;;;5.22;;
74269;SDS011;62754;48.252;11.654;2022-11-14T09:32:37;11.52;;;6.63;;
74269;SDS011;62754;48.252;11.654;2022-11-14T09:35:03;15.88;;;7.57;;
74269;SDS011;62754;48.252;11.654;2022-11-14T09:37:29;8.82;;;5.30;;
74269;SDS011;62754;48.252;11.654;2022-11-14T09:39:55;9.80;;;5.88;;
74269;SDS011;62754;48.252;11.654;2022-11-14T09:44:59;10.15;;;6.65;;
74269;SDS011;62754;48.252;11.654;2022-11-14T09:47:39;9.20;;;5.65;;
74269;SDS011;62754;48.252;11.654;2022-11-14T09:50:13;9.98;;;5.32;;
74269;SDS011;62754;48.252;11.654;2022-11-14T09:52:44;8.38;;;5.60;;
74269;SDS011;62754;48.252;11.654;2022-11-14T09:55:17;8.95;;;5.68;;
74269;SDS011;62754;48.252;11.654;2022-11-14T09:57:45;9.18;;;5.45;;
74269;SDS011;62754;48.252;11.654;2022-11-14T10:00:16;9.40;;;5.07;;
74269;SDS011;62754;48.252;11.654;2022-11-14T10:05:29;7.88;;;5.72;;
74269;SDS011;62754;48.252;11.654;2022-11-14T10:11:22;11.57;;;4.90;;
74269;SDS011;62754;48.252;11.654;2022-11-14T10:19:43;7.07;;;4.78;;
74269;SDS011;62754;48.252;11.654;2022-11-14T10:22:31;6.15;;;4.47;;
74269;SDS011;62754;48.252;11.654;2022-11-14T10:25:15;8.88;;;5.28;;
74269;SDS011;62754;48.252;11.654;2022-11-14T10:27:57;6.80;;;4.70;;
74269;SDS011;62754;48.252;11.654;2022-11-14T10:30:49;8.57;;;5.43;;
74269;SDS011;62754;48.252;11.654;2022-11-14T10:38:38;8.85;;;5.50;;
74269;SDS011;62754;48.252;11.654;2022-11-14T10:41:08;8.00;;;4.90;;
74269;SDS011;62754;48.252;11.654;2022-11-14T10:43:46;6.63;;;4.40;;
74269;SDS011;62754;48.252;11.654;2022-11-14T10:46:15;6.93;;;4.90;;
74269;SDS011;62754;48.252;11.654;2022-11-14T10:48:45;8.48;;;4.25;;
74269;SDS011;62754;48.252;11.654;2022-11-14T10:51:33;5.43;;;4.32;;
74269;SDS011;62754;48.252;11.654;2022-11-14T10:56:44;6.95;;;4.90;;
74269;SDS011;62754;48.252;11.654;2022-11-14T10:59:11;8.27;;;5.38;;
74269;SDS011;62754;48.252;11.654;2022-11-14T11:06:55;10.52;;;7.30;;
74269;SDS011;62754;48.252;11.654;2022-11-14T11:09:41;7.97;;;5.80;;
74269;SDS011;62754;48.252;11.654;2022-11-14T11:12:07;10.68;;;6.47;;
74269;SDS011;62754;48.252;11.654;2022-11-14T11:14:39;9.32;;;6.72;;
74269;SDS011;62754;48.252;11.654;2022-11-14T11:19:33;7.65;;;6.10;;
74269;SDS011;62754;48.252;11.654;2022-11-14T11:21:59;8.63;;;6.55;;
74269;SDS011;62754;48.252;11.654;2022-11-14T11:24:34;10.30;;;7.43;;
74269;SDS011;62754;48.252;11.654;2022-11-14T11:27:22;7.25;;;5.90;;
74269;SDS011;62754;48.252;11.654;2022-11-14T11:32:43;8.35;;;6.65;;
74269;SDS011;62754;48.252;11.654;2022-11-14T11:35:13;10.20;;;7.53;;
74269;SDS011;62754;48.252;11.654;2022-11-14T11:40:13;8.80;;;5.85;;
74269;SDS011;62754;48.252;11.654;2022-11-14T11:42:43;9.45;;;7.13;;
74269;SDS011;62754;48.252;11.654;2022-11-14T11:45:16;9.35;;;6.75;;
74269;SDS011;62754;48.252;11.654;2022-11-14T11:47:45;10.43;;;6.97;;
74269;SDS011;62754;48.252;11.654;2022-11-14T11:50:18;9.15;;;6.32;;
74269;SDS011;62754;48.252;11.654;2022-11-14T11:52:50;8.60;;;5.97;;
74269;SDS011;62754;48.252;11.654;2022-11-14T11:55:31;8.35;;;6.40;;
74269;SDS011;62754;48.252;11.654;2022-11-14T11:58:04;8.70;;;6.70;;
74269;SDS011;62754;48.252;11.654;2022-11-14T12:00:34;10.00;;;6.35;;
74269;SDS011;62754;48.252;11.654;2022-11-14T12:03:00;8.35;;;5.85;;
74269;SDS011;62754;48.252;11.654;2022-11-14T12:11:08;8.38;;;5.80;;
74269;SDS011;62754;48.252;11.654;2022-11-14T12:13:48;9.18;;;6.68;;
74269;SDS011;62754;48.252;11.654;2022-11-14T12:16:26;14.07;;;7.85;;
74269;SDS011;62754;48.252;11.654;2022-11-14T12:35:33;7.53;;;5.75;;
74269;SDS011;62754;48.252;11.654;2022-11-14T12:38:02;7.15;;;5.75;;
74269;SDS011;62754;48.252;11.654;2022-11-14T12:40:30;8.30;;;6.20;;
74269;SDS011;62754;48.252;11.654;2022-11-14T12:42:57;8.15;;;6.10;;
74269;SDS011;62754;48.252;11.654;2022-11-14T12:48:16;7.97;;;5.90;;
74269;SDS011;62754;48.252;11.654;2022-11-14T12:50:57;7.78;;;6.22;;
74269;SDS011;62754;48.252;11.654;2022-11-14T12:56:00;9.23;;;6.00;;
74269;SDS011;62754;48.252;11.654;2022-11-14T12:58:42;7.50;;;5.57;;
74269;SDS011;62754;48.252;11.654;2022-11-14T13:12:34;7.57;;;6.07;;
74269;SDS011;62754;48.252;11.654;2022-11-14T13:17:35;7.47;;;5.75;;
74269;SDS011;62754;48.252;11.654;2022-11-14T13:20:21;7.35;;;5.45;;
74269;SDS011;62754;48.252;11.654;2022-11-14T13:22:52;8.75;;;7.25;;
74269;SDS011;62754;48.252;11.654;2022-11-14T13:25:19;7.07;;;5.47;;
74269;SDS011;62754;48.252;11.654;2022-11-14T13:27:46;7.78;;;5.65;;
74269;SDS011;62754;48.252;11.654;2022-11-14T13:35:17;7.53;;;5.75;;
74269;SDS011;62754;48.252;11.654;2022-11-14T13:37:56;9.23;;;6.07;;
74269;SDS011;62754;48.252;11.654;2022-11-14T13:40:27;7.68;;;5.90;;
74269;SDS011;62754;48.252;11.654;2022-11-14T13:45:54;9.27;;;6.80;;
74269;SDS011;62754;48.252;11.654;2022-11-14T13:51:21;7.18;;;5.68;;
74269;SDS011;62754;48.252;11.654;2022-11-14T13:53:49;7.93;;;5.47;;
74269;SDS011;62754;48.252;11.654;2022-11-14T14:05:31;9.15;;;6.43;;
74269;SDS011;62754;48.252;11.654;2022-11-14T14:08:06;8.73;;;6.43;;
74269;SDS011;62754;48.252;11.654;2022-11-14T14:13:17;9.43;;;6.80;;
74269;SDS011;62754;48.252;11.654;2022-11-14T14:16:02;8.88;;;6.72;;
74269;SDS011;62754;48.252;11.654;2022-11-14T14:18:42;9.05;;;6.93;;
74269;SDS011;62754;48.252;11.654;2022-11-14T14:24:27;8.55;;;6.38;;
74269;SDS011;62754;48.252;11.654;2022-11-14T14:32:19;8.88;;;6.32;;
74269;SDS011;62754;48.252;11.654;2022-11-14T14:34:45;9.68;;;6.50;;
74269;SDS011;62754;48.252;11.654;2022-11-14T14:37:15;8.77;;;5.88;;
74269;SDS011;62754;48.252;11.654;2022-11-14T14:39:54;9.70;;;6.65;;
74269;SDS011;62754;48.252;11.654;2022-11-14T14:42:20;9.45;;;6.93;;
74269;SDS011;62754;48.252;11.654;2022-11-14T14:44:46;8.52;;;6.20;;
74269;SDS011;62754;48.252;11.654;2022-11-14T14:49:53;9.18;;;6.75;;
74269;SDS011;62754;48.252;11.654;2022-11-14T14:54:56;10.15;;;7.05;;
74269;SDS011;62754;48.252;11.654;2022-11-14T14:57:23;9.55;;;6.72;;
74269;SDS011;62754;48.252;11.654;2022-11-14T14:59:58;9.43;;;7.20;;
74269;SDS011;62754;48.252;11.654;2022-11-14T15:02:25;13.07;;;7.45;;
74269;SDS011;62754;48.252;11.654;2022-11-14T15:04:52;10.23;;;7.47;;
74269;SDS011;62754;48.252;11.654;2022-11-14T15:07:20;10.88;;;6.90;;
74269;SDS011;62754;48.252;11.654;2022-11-14T15:09:53;12.13;;;7.35;;
74269;SDS011;62754;48.252;11.654;2022-11-14T15:12:22;11.43;;;7.72;;
74269;SDS011;62754;48.252;11.654;2022-11-14T15:14:49;11.32;;;7.57;;
74269;SDS011;62754;48.252;11.654;2022-11-14T15:17:17;11.50;;;7.38;;
74269;SDS011;62754;48.252;11.654;2022-11-14T15:19:44;10.68;;;7.45;;
74269;SDS011;62754;48.252;11.654;2022-11-14T15:24:40;12.10;;;7.70;;
74269;SDS011;62754;48.252;11.654;2022-11-14T15:27:16;11.68;;;7.82;;
74269;SDS011;62754;48.252;11.654;2022-11-14T15:29:47;11.23;;;8.00;;
74269;SDS011;62754;48.252;11.654;2022-11-14T15:32:16;13.45;;;9.15;;
74269;SDS011;62754;48.252;11.654;2022-11-14T15:37:58;10.93;;;7.25;;
74269;SDS011;62754;48.252;11.654;2022-11-14T15:40:24;12.35;;;7.20;;
74269;SDS011;62754;48.252;11.654;2022-11-14T15:42:50;10.13;;;7.78;;
74269;SDS011;62754;48.252;11.654;2022-11-14T15:45:22;10.95;;;7.45;;
74269;SDS011;62754;48.252;11.654;2022-11-14T15:47:56;10.65;;;7.10;;
74269;SDS011;62754;48.252;11.654;2022-11-14T15:50:32;11.52;;;7.75;;
74269;SDS011;62754;48.252;11.654;2022-11-14T15:53:00;11.70;;;7.68;;
74269;SDS011;62754;48.252;11.654;2022-11-14T15:55:28;11.65;;;7.75;;
74269;SDS011;62754;48.252;11.654;2022-11-14T15:57:54;12.80;;;7.90;;
74269;SDS011;62754;48.252;11.654;2022-11-14T16:00:20;12.23;;;7.88;;
74269;SDS011;62754;48.252;11.654;2022-11-14T16:02:50;11.43;;;7.93;;
74269;SDS011;62754;48.252;11.654;2022-11-14T16:05:23;11.40;;;7.80;;
74269;SDS011;62754;48.252;11.654;2022-11-14T16:07:52;11.90;;;7.60;;
74269;SDS011;62754;48.252;11.654;2022-11-14T16:10:22;11.10;;;7.63;;
74269;SDS011;62754;48.252;11.654;2022-11-14T16:12:50;13.73;;;8.50;;
74269;SDS011;62754;48.252;11.654;2022-11-14T16:15:16;11.45;;;8.10;;
74269;SDS011;62754;48.252;11.654;2022-11-14T16:17:44;12.02;;;7.57;;
74269;SDS011;62754;48.252;11.654;2022-11-14T16:22:44;12.23;;;8.02;;
74269;SDS011;62754;48.252;11.654;2022-11-14T16:25:22;12.57;;;7.80;;
74269;SDS011;62754;48.252;11.654;2022-11-14T16:27:50;14.05;;;7.85;;
74269;SDS011;62754;48.252;11.654;2022-11-14T16:30:16;13.15;;;7.60;;
74269;SDS011;62754;48.252;11.654;2022-11-14T16:32:44;13.25;;;8.20;;
74269;SDS011;62754;48.252;11.654;2022-11-14T16:37:47;12.52;;;7.82;;
74269;SDS011;62754;48.252;11.654;2022-11-14T16:40:17;21.30;;;8.80;;
74269;SDS011;62754;48.252;11.654;2022-11-14T16:42:48;12.32;;;7.75;;